sensor_id;sensor_type;location;lat;lon;timestamp;P1;durP1;ratioP1;P2;durP2;ratioP2
58756;SDS011;44527;47.460;19.016;2022-09-09T00:02:46;1.27;;;1.00;;
58756;SDS011;44527;47.460;19.016;2022-09-09T00:09:29;4.72;;;1.30;;
58756;SDS011;44527;47.460;19.016;2022-09-09T00:16:13;1.83;;;1.20;;
58756;SDS011;44527;47.460;19.016;2022-09-09T00:19:39;5.22;;;1.40;;
58756;SDS011;44527;47.460;19.016;2022-09-09T00:23:11;1.45;;;1.10;;
58756;SDS011;44527;47.460;19.016;2022-09-09T00:29:45;1.33;;;1.00;;
58756;SDS011;44527;47.460;19.016;2022-09-09T00:33:00;2.95;;;1.10;;
58756;SDS011;44527;47.460;19.016;2022-09-09T00:36:07;1.75;;;1.10;;
58756;SDS011;44527;47.460;19.016;2022-09-09T00:39:24;2.25;;;1.00;;
58756;SDS011;44527;47.460;19.016;2022-09-09T00:42:40;2.05;;;0.93;;
58756;SDS011;44527;47.460;19.016;2022-09-09T00:52:25;1.58;;;1.17;;
58756;SDS011;44527;47.460;19.016;2022-09-09T00:58:57;1.65;;;1.02;;
58756;SDS011;44527;47.460;19.016;2022-09-09T01:02:13;1.65;;;1.23;;
58756;SDS011;44527;47.460;19.016;2022-09-09T01:05:45;5.32;;;1.20;;
58756;SDS011;44527;47.460;19.016;2022-09-09T01:12:16;4.95;;;1.00;;
58756;SDS011;44527;47.460;19.016;2022-09-09T01:15:27;5.00;;;1.30;;
58756;SDS011;44527;47.460;19.016;2022-09-09T01:18:35;3.33;;;0.90;;
58756;SDS011;44527;47.460;19.016;2022-09-09T01:28:27;4.55;;;0.80;;
58756;SDS011;44527;47.460;19.016;2022-09-09T01:31:34;2.15;;;1.15;;
58756;SDS011;44527;47.460;19.016;2022-09-09T01:34:40;2.08;;;1.10;;
58756;SDS011;44527;47.460;19.016;2022-09-09T01:37:43;2.55;;;1.25;;
58756;SDS011;44527;47.460;19.016;2022-09-09T01:40:45;1.08;;;0.98;;
58756;SDS011;44527;47.460;19.016;2022-09-09T01:43:49;4.22;;;1.20;;
58756;SDS011;44527;47.460;19.016;2022-09-09T01:46:53;5.32;;;1.30;;
58756;SDS011;44527;47.460;19.016;2022-09-09T01:49:56;1.90;;;1.25;;
58756;SDS011;44527;47.460;19.016;2022-09-09T01:52:59;4.85;;;1.23;;
58756;SDS011;44527;47.460;19.016;2022-09-09T02:00:00;2.30;;;1.00;;
58756;SDS011;44527;47.460;19.016;2022-09-09T02:03:23;1.90;;;0.98;;
58756;SDS011;44527;47.460;19.016;2022-09-09T02:09:32;4.03;;;1.05;;
58756;SDS011;44527;47.460;19.016;2022-09-09T02:12:41;6.57;;;0.90;;
58756;SDS011;44527;47.460;19.016;2022-09-09T02:16:08;2.87;;;0.80;;
58756;SDS011;44527;47.460;19.016;2022-09-09T02:19:20;2.45;;;0.60;;
58756;SDS011;44527;47.460;19.016;2022-09-09T02:22:29;1.02;;;0.80;;
58756;SDS011;44527;47.460;19.016;2022-09-09T02:25:37;0.60;;;0.60;;
58756;SDS011;44527;47.460;19.016;2022-09-09T02:28:42;1.48;;;0.82;;
58756;SDS011;44527;47.460;19.016;2022-09-09T02:31:45;2.37;;;0.70;;
58756;SDS011;44527;47.460;19.016;2022-09-09T02:34:55;2.83;;;1.08;;
58756;SDS011;44527;47.460;19.016;2022-09-09T02:38:04;1.20;;;0.85;;
58756;SDS011;44527;47.460;19.016;2022-09-09T02:41:11;6.47;;;0.75;;
58756;SDS011;44527;47.460;19.016;2022-09-09T02:44:15;3.75;;;1.30;;
58756;SDS011;44527;47.460;19.016;2022-09-09T02:50:35;3.30;;;0.95;;
58756;SDS011;44527;47.460;19.016;2022-09-09T02:54:17;3.83;;;0.93;;
58756;SDS011;44527;47.460;19.016;2022-09-09T02:57:17;0.95;;;0.80;;
58756;SDS011;44527;47.460;19.016;2022-09-09T03:00:26;3.55;;;1.40;;
58756;SDS011;44527;47.460;19.016;2022-09-09T03:03:30;4.40;;;1.45;;
58756;SDS011;44527;47.460;19.016;2022-09-09T03:06:34;2.37;;;0.93;;
58756;SDS011;44527;47.460;19.016;2022-09-09T03:09:38;3.85;;;1.48;;
58756;SDS011;44527;47.460;19.016;2022-09-09T03:12:41;1.37;;;1.00;;
58756;SDS011;44527;47.460;19.016;2022-09-09T03:15:44;6.03;;;1.20;;
58756;SDS011;44527;47.460;19.016;2022-09-09T03:18:47;2.15;;;1.30;;
58756;SDS011;44527;47.460;19.016;2022-09-09T03:21:49;3.50;;;1.30;;
58756;SDS011;44527;47.460;19.016;2022-09-09T03:24:52;1.87;;;1.25;;
58756;SDS011;44527;47.460;19.016;2022-09-09T03:27:54;2.05;;;1.05;;
58756;SDS011;44527;47.460;19.016;2022-09-09T03:30:58;5.90;;;1.17;;
58756;SDS011;44527;47.460;19.016;2022-09-09T03:34:06;1.77;;;0.85;;
58756;SDS011;44527;47.460;19.016;2022-09-09T03:37:10;1.50;;;0.98;;
58756;SDS011;44527;47.460;19.016;2022-09-09T03:40:14;7.43;;;1.30;;
58756;SDS011;44527;47.460;19.016;2022-09-09T03:43:17;1.30;;;1.00;;
58756;SDS011;44527;47.460;19.016;2022-09-09T03:46:19;2.10;;;1.30;;
58756;SDS011;44527;47.460;19.016;2022-09-09T03:49:24;2.35;;;1.25;;
58756;SDS011;44527;47.460;19.016;2022-09-09T03:52:29;2.35;;;1.42;;
58756;SDS011;44527;47.460;19.016;2022-09-09T03:55:32;2.17;;;1.20;;
58756;SDS011;44527;47.460;19.016;2022-09-09T03:58:35;2.67;;;1.50;;
58756;SDS011;44527;47.460;19.016;2022-09-09T04:01:39;1.35;;;1.12;;
58756;SDS011;44527;47.460;19.016;2022-09-09T04:04:42;2.17;;;1.45;;
58756;SDS011;44527;47.460;19.016;2022-09-09T04:07:44;5.22;;;2.05;;
58756;SDS011;44527;47.460;19.016;2022-09-09T04:10:47;1.77;;;1.30;;
58756;SDS011;44527;47.460;19.016;2022-09-09T04:13:51;3.17;;;1.20;;
58756;SDS011;44527;47.460;19.016;2022-09-09T04:16:54;3.12;;;1.37;;
58756;SDS011;44527;47.460;19.016;2022-09-09T04:19:58;1.62;;;1.10;;
58756;SDS011;44527;47.460;19.016;2022-09-09T04:23:01;1.92;;;1.10;;
58756;SDS011;44527;47.460;19.016;2022-09-09T04:26:03;6.82;;;1.20;;
58756;SDS011;44527;47.460;19.016;2022-09-09T04:29:07;3.12;;;1.30;;
58756;SDS011;44527;47.460;19.016;2022-09-09T04:32:09;2.47;;;1.33;;
58756;SDS011;44527;47.460;19.016;2022-09-09T04:35:14;1.08;;;0.98;;
58756;SDS011;44527;47.460;19.016;2022-09-09T04:38:17;1.73;;;1.10;;
58756;SDS011;44527;47.460;19.016;2022-09-09T04:41:20;19.25;;;1.40;;
58756;SDS011;44527;47.460;19.016;2022-09-09T04:44:23;3.20;;;1.00;;
58756;SDS011;44527;47.460;19.016;2022-09-09T04:47:26;4.78;;;1.30;;
58756;SDS011;44527;47.460;19.016;2022-09-09T04:50:28;7.80;;;1.27;;
58756;SDS011;44527;47.460;19.016;2022-09-09T04:53:32;1.92;;;1.33;;
58756;SDS011;44527;47.460;19.016;2022-09-09T04:56:37;2.35;;;1.35;;
58756;SDS011;44527;47.460;19.016;2022-09-09T04:59:40;1.60;;;1.20;;
58756;SDS011;44527;47.460;19.016;2022-09-09T05:02:42;1.77;;;1.10;;
58756;SDS011;44527;47.460;19.016;2022-09-09T05:05:45;1.37;;;1.10;;
58756;SDS011;44527;47.460;19.016;2022-09-09T05:08:47;4.00;;;1.40;;
58756;SDS011;44527;47.460;19.016;2022-09-09T05:11:52;2.65;;;1.42;;
58756;SDS011;44527;47.460;19.016;2022-09-09T05:14:55;2.12;;;1.35;;
58756;SDS011;44527;47.460;19.016;2022-09-09T05:17:58;3.33;;;1.30;;
58756;SDS011;44527;47.460;19.016;2022-09-09T05:21:02;1.35;;;1.20;;
58756;SDS011;44527;47.460;19.016;2022-09-09T05:24:05;2.37;;;1.50;;
58756;SDS011;44527;47.460;19.016;2022-09-09T05:27:07;2.80;;;1.60;;
58756;SDS011;44527;47.460;19.016;2022-09-09T05:30:13;5.12;;;1.27;;
58756;SDS011;44527;47.460;19.016;2022-09-09T05:33:15;2.20;;;1.30;;
58756;SDS011;44527;47.460;19.016;2022-09-09T05:36:19;6.22;;;1.42;;
58756;SDS011;44527;47.460;19.016;2022-09-09T05:39:23;4.50;;;1.50;;
58756;SDS011;44527;47.460;19.016;2022-09-09T05:42:29;4.70;;;1.27;;
58756;SDS011;44527;47.460;19.016;2022-09-09T05:45:33;3.77;;;1.27;;
58756;SDS011;44527;47.460;19.016;2022-09-09T05:48:36;6.95;;;1.50;;
58756;SDS011;44527;47.460;19.016;2022-09-09T05:51:41;5.97;;;1.37;;
58756;SDS011;44527;47.460;19.016;2022-09-09T05:54:45;3.70;;;1.30;;
58756;SDS011;44527;47.460;19.016;2022-09-09T05:57:50;8.50;;;1.23;;
58756;SDS011;44527;47.460;19.016;2022-09-09T06:00:59;4.53;;;1.13;;
58756;SDS011;44527;47.460;19.016;2022-09-09T06:04:03;6.72;;;1.10;;
58756;SDS011;44527;47.460;19.016;2022-09-09T06:07:06;6.15;;;1.45;;
58756;SDS011;44527;47.460;19.016;2022-09-09T06:10:09;3.03;;;1.20;;
58756;SDS011;44527;47.460;19.016;2022-09-09T06:13:12;5.12;;;1.27;;
58756;SDS011;44527;47.460;19.016;2022-09-09T06:16:16;2.20;;;1.42;;
58756;SDS011;44527;47.460;19.016;2022-09-09T06:19:21;3.25;;;1.30;;
58756;SDS011;44527;47.460;19.016;2022-09-09T06:22:23;2.55;;;1.10;;
58756;SDS011;44527;47.460;19.016;2022-09-09T06:25:26;4.60;;;0.88;;
58756;SDS011;44527;47.460;19.016;2022-09-09T06:28:28;1.55;;;0.90;;
58756;SDS011;44527;47.460;19.016;2022-09-09T06:31:32;2.78;;;1.12;;
58756;SDS011;44527;47.460;19.016;2022-09-09T06:34:37;2.50;;;0.65;;
58756;SDS011;44527;47.460;19.016;2022-09-09T06:37:44;2.85;;;0.77;;
58756;SDS011;44527;47.460;19.016;2022-09-09T06:40:51;3.20;;;0.98;;
58756;SDS011;44527;47.460;19.016;2022-09-09T06:43:57;1.48;;;0.60;;
58756;SDS011;44527;47.460;19.016;2022-09-09T06:47:04;2.40;;;0.82;;
58756;SDS011;44527;47.460;19.016;2022-09-09T06:50:07;1.00;;;0.75;;
58756;SDS011;44527;47.460;19.016;2022-09-09T06:53:10;5.60;;;0.95;;
58756;SDS011;44527;47.460;19.016;2022-09-09T06:59:25;4.90;;;0.90;;
58756;SDS011;44527;47.460;19.016;2022-09-09T07:02:29;7.15;;;0.82;;
58756;SDS011;44527;47.460;19.016;2022-09-09T07:05:32;5.53;;;1.02;;
58756;SDS011;44527;47.460;19.016;2022-09-09T07:08:35;4.80;;;1.00;;
58756;SDS011;44527;47.460;19.016;2022-09-09T07:11:38;5.28;;;1.08;;
58756;SDS011;44527;47.460;19.016;2022-09-09T07:14:44;1.15;;;0.75;;
58756;SDS011;44527;47.460;19.016;2022-09-09T07:17:47;3.55;;;1.00;;
58756;SDS011;44527;47.460;19.016;2022-09-09T07:20:54;4.43;;;1.15;;
58756;SDS011;44527;47.460;19.016;2022-09-09T07:23:59;3.87;;;1.00;;
58756;SDS011;44527;47.460;19.016;2022-09-09T07:27:03;3.87;;;0.90;;
58756;SDS011;44527;47.460;19.016;2022-09-09T07:30:06;4.80;;;0.95;;
58756;SDS011;44527;47.460;19.016;2022-09-09T07:33:09;1.95;;;1.12;;
58756;SDS011;44527;47.460;19.016;2022-09-09T07:36:16;4.28;;;0.80;;
58756;SDS011;44527;47.460;19.016;2022-09-09T07:39:23;1.25;;;0.90;;
58756;SDS011;44527;47.460;19.016;2022-09-09T07:42:28;8.13;;;0.95;;
58756;SDS011;44527;47.460;19.016;2022-09-09T07:45:31;5.57;;;1.10;;
58756;SDS011;44527;47.460;19.016;2022-09-09T07:48:35;4.82;;;1.08;;
58756;SDS011;44527;47.460;19.016;2022-09-09T07:51:39;7.30;;;0.70;;
58756;SDS011;44527;47.460;19.016;2022-09-09T07:54:47;7.05;;;0.85;;
58756;SDS011;44527;47.460;19.016;2022-09-09T07:57:49;1.17;;;0.80;;
58756;SDS011;44527;47.460;19.016;2022-09-09T08:00:52;2.75;;;0.80;;
58756;SDS011;44527;47.460;19.016;2022-09-09T08:03:59;3.37;;;0.62;;
58756;SDS011;44527;47.460;19.016;2022-09-09T08:07:06;3.83;;;1.10;;
58756;SDS011;44527;47.460;19.016;2022-09-09T08:10:10;4.47;;;1.10;;
58756;SDS011;44527;47.460;19.016;2022-09-09T08:13:13;7.85;;;1.02;;
58756;SDS011;44527;47.460;19.016;2022-09-09T08:16:22;3.22;;;0.88;;
58756;SDS011;44527;47.460;19.016;2022-09-09T08:19:26;7.40;;;1.10;;
58756;SDS011;44527;47.460;19.016;2022-09-09T08:22:32;1.90;;;0.80;;
58756;SDS011;44527;47.460;19.016;2022-09-09T08:25:34;4.32;;;0.90;;
58756;SDS011;44527;47.460;19.016;2022-09-09T08:28:37;3.53;;;1.00;;
58756;SDS011;44527;47.460;19.016;2022-09-09T08:31:41;114.45;;;5.10;;
58756;SDS011;44527;47.460;19.016;2022-09-09T08:34:45;3.42;;;0.85;;
58756;SDS011;44527;47.460;19.016;2022-09-09T08:37:52;3.30;;;1.00;;
58756;SDS011;44527;47.460;19.016;2022-09-09T08:40:59;1.13;;;0.70;;
58756;SDS011;44527;47.460;19.016;2022-09-09T08:50:51;1.65;;;0.77;;
58756;SDS011;44527;47.460;19.016;2022-09-09T08:53:54;2.33;;;0.70;;
58756;SDS011;44527;47.460;19.016;2022-09-09T08:57:01;4.00;;;1.20;;
58756;SDS011;44527;47.460;19.016;2022-09-09T09:00:09;1.52;;;0.88;;
58756;SDS011;44527;47.460;19.016;2022-09-09T09:03:18;1.30;;;0.52;;
58756;SDS011;44527;47.460;19.016;2022-09-09T09:12:56;3.20;;;0.50;;
58756;SDS011;44527;47.460;19.016;2022-09-09T09:16:02;1.62;;;0.70;;
58756;SDS011;44527;47.460;19.016;2022-09-09T09:19:15;1.50;;;0.60;;
58756;SDS011;44527;47.460;19.016;2022-09-09T09:25:46;1.50;;;0.50;;
58756;SDS011;44527;47.460;19.016;2022-09-09T09:28:48;2.45;;;0.75;;
58756;SDS011;44527;47.460;19.016;2022-09-09T09:31:54;1.30;;;0.70;;
58756;SDS011;44527;47.460;19.016;2022-09-09T09:35:06;4.47;;;0.77;;
58756;SDS011;44527;47.460;19.016;2022-09-09T09:38:18;1.95;;;0.50;;
58756;SDS011;44527;47.460;19.016;2022-09-09T09:41:47;4.72;;;0.82;;
58756;SDS011;44527;47.460;19.016;2022-09-09T09:44:50;4.40;;;0.70;;
58756;SDS011;44527;47.460;19.016;2022-09-09T09:47:57;4.43;;;0.52;;
58756;SDS011;44527;47.460;19.016;2022-09-09T09:51:08;2.55;;;0.52;;
58756;SDS011;44527;47.460;19.016;2022-09-09T09:54:23;1.33;;;0.43;;
58756;SDS011;44527;47.460;19.016;2022-09-09T09:57:32;1.00;;;0.52;;
58756;SDS011;44527;47.460;19.016;2022-09-09T10:00:36;0.98;;;0.52;;
58756;SDS011;44527;47.460;19.016;2022-09-09T10:03:52;1.95;;;0.50;;
58756;SDS011;44527;47.460;19.016;2022-09-09T10:06:55;1.50;;;0.60;;
58756;SDS011;44527;47.460;19.016;2022-09-09T10:09:58;0.57;;;0.40;;
58756;SDS011;44527;47.460;19.016;2022-09-09T10:19:58;1.58;;;0.37;;
58756;SDS011;44527;47.460;19.016;2022-09-09T10:26:51;0.62;;;0.37;;
58756;SDS011;44527;47.460;19.016;2022-09-09T10:48:31;0.45;;;0.30;;
58756;SDS011;44527;47.460;19.016;2022-09-09T10:56:18;0.98;;;0.30;;
58756;SDS011;44527;47.460;19.016;2022-09-09T10:59:30;0.95;;;0.32;;
58756;SDS011;44527;47.460;19.016;2022-09-09T11:02:39;1.92;;;0.30;;
58756;SDS011;44527;47.460;19.016;2022-09-09T11:05:44;1.17;;;0.20;;
58756;SDS011;44527;47.460;19.016;2022-09-09T11:08:51;0.65;;;0.30;;
58756;SDS011;44527;47.460;19.016;2022-09-09T11:11:58;1.20;;;0.40;;
58756;SDS011;44527;47.460;19.016;2022-09-09T11:15:06;1.87;;;0.50;;
58756;SDS011;44527;47.460;19.016;2022-09-09T11:18:18;1.25;;;0.40;;
58756;SDS011;44527;47.460;19.016;2022-09-09T11:31:16;1.77;;;0.45;;
58756;SDS011;44527;47.460;19.016;2022-09-09T11:41:14;0.80;;;0.60;;
58756;SDS011;44527;47.460;19.016;2022-09-09T11:44:27;1.17;;;0.50;;
58756;SDS011;44527;47.460;19.016;2022-09-09T11:47:33;3.95;;;0.52;;
58756;SDS011;44527;47.460;19.016;2022-09-09T11:50:35;1.23;;;0.40;;
58756;SDS011;44527;47.460;19.016;2022-09-09T11:53:51;0.93;;;0.50;;
58756;SDS011;44527;47.460;19.016;2022-09-09T11:56:57;0.90;;;0.50;;
58756;SDS011;44527;47.460;19.016;2022-09-09T12:00:01;1.48;;;0.70;;
58756;SDS011;44527;47.460;19.016;2022-09-09T12:06:44;2.17;;;0.50;;
58756;SDS011;44527;47.460;19.016;2022-09-09T12:13:24;1.10;;;0.60;;
58756;SDS011;44527;47.460;19.016;2022-09-09T12:16:35;1.65;;;0.80;;
58756;SDS011;44527;47.460;19.016;2022-09-09T12:19:40;1.15;;;0.70;;
58756;SDS011;44527;47.460;19.016;2022-09-09T12:22:50;1.58;;;0.60;;
58756;SDS011;44527;47.460;19.016;2022-09-09T12:33:02;0.75;;;0.50;;
58756;SDS011;44527;47.460;19.016;2022-09-09T12:36:29;0.70;;;0.60;;
58756;SDS011;44527;47.460;19.016;2022-09-09T12:39:42;2.90;;;0.80;;
58756;SDS011;44527;47.460;19.016;2022-09-09T12:42:49;4.10;;;0.80;;
58756;SDS011;44527;47.460;19.016;2022-09-09T12:45:53;2.83;;;0.47;;
58756;SDS011;44527;47.460;19.016;2022-09-09T12:48:59;2.92;;;0.60;;
58756;SDS011;44527;47.460;19.016;2022-09-09T12:52:36;2.05;;;0.85;;
58756;SDS011;44527;47.460;19.016;2022-09-09T12:55:36;6.43;;;0.77;;
58756;SDS011;44527;47.460;19.016;2022-09-09T12:58:44;4.12;;;0.55;;
58756;SDS011;44527;47.460;19.016;2022-09-09T13:01:55;3.30;;;0.68;;
58756;SDS011;44527;47.460;19.016;2022-09-09T13:05:06;1.85;;;0.60;;
58756;SDS011;44527;47.460;19.016;2022-09-09T13:08:17;4.05;;;0.60;;
58756;SDS011;44527;47.460;19.016;2022-09-09T13:11:24;1.45;;;0.52;;
58756;SDS011;44527;47.460;19.016;2022-09-09T13:14:32;1.80;;;0.90;;
58756;SDS011;44527;47.460;19.016;2022-09-09T13:17:39;1.58;;;0.60;;
58756;SDS011;44527;47.460;19.016;2022-09-09T13:20:46;2.67;;;0.68;;
58756;SDS011;44527;47.460;19.016;2022-09-09T13:26:54;1.95;;;0.40;;
58756;SDS011;44527;47.460;19.016;2022-09-09T13:29:58;1.80;;;0.65;;
58756;SDS011;44527;47.460;19.016;2022-09-09T13:36:31;1.08;;;0.70;;
58756;SDS011;44527;47.460;19.016;2022-09-09T13:39:36;2.25;;;0.50;;
58756;SDS011;44527;47.460;19.016;2022-09-09T13:42:40;0.77;;;0.30;;
58756;SDS011;44527;47.460;19.016;2022-09-09T13:45:51;1.67;;;0.50;;
58756;SDS011;44527;47.460;19.016;2022-09-09T13:48:59;3.08;;;0.50;;
58756;SDS011;44527;47.460;19.016;2022-09-09T13:52:04;2.22;;;0.80;;
58756;SDS011;44527;47.460;19.016;2022-09-09T13:55:10;1.67;;;0.65;;
58756;SDS011;44527;47.460;19.016;2022-09-09T13:58:16;2.60;;;0.68;;
58756;SDS011;44527;47.460;19.016;2022-09-09T14:04:28;3.10;;;0.57;;
58756;SDS011;44527;47.460;19.016;2022-09-09T14:07:30;0.70;;;0.47;;
58756;SDS011;44527;47.460;19.016;2022-09-09T14:10:34;3.58;;;0.60;;
58756;SDS011;44527;47.460;19.016;2022-09-09T14:13:39;1.90;;;0.55;;
58756;SDS011;44527;47.460;19.016;2022-09-09T14:16:42;4.07;;;0.65;;
58756;SDS011;44527;47.460;19.016;2022-09-09T14:19:44;10.68;;;0.98;;
58756;SDS011;44527;47.460;19.016;2022-09-09T14:22:48;0.52;;;0.47;;
58756;SDS011;44527;47.460;19.016;2022-09-09T14:25:50;3.12;;;0.50;;
58756;SDS011;44527;47.460;19.016;2022-09-09T14:28:56;1.67;;;0.50;;
58756;SDS011;44527;47.460;19.016;2022-09-09T14:31:59;0.60;;;0.43;;
58756;SDS011;44527;47.460;19.016;2022-09-09T14:35:03;2.62;;;0.68;;
58756;SDS011;44527;47.460;19.016;2022-09-09T14:38:08;53.17;;;2.62;;
58756;SDS011;44527;47.460;19.016;2022-09-09T14:41:12;7.78;;;0.80;;
58756;SDS011;44527;47.460;19.016;2022-09-09T14:44:18;3.50;;;0.62;;
58756;SDS011;44527;47.460;19.016;2022-09-09T14:47:20;2.67;;;0.40;;
58756;SDS011;44527;47.460;19.016;2022-09-09T14:50:23;1.08;;;0.52;;
58756;SDS011;44527;47.460;19.016;2022-09-09T14:53:26;4.75;;;0.62;;
58756;SDS011;44527;47.460;19.016;2022-09-09T14:56:29;1.52;;;0.70;;
58756;SDS011;44527;47.460;19.016;2022-09-09T14:59:33;3.35;;;0.70;;
58756;SDS011;44527;47.460;19.016;2022-09-09T15:02:36;26.33;;;1.52;;
58756;SDS011;44527;47.460;19.016;2022-09-09T15:05:38;35.40;;;2.05;;
58756;SDS011;44527;47.460;19.016;2022-09-09T15:08:41;2.53;;;0.60;;
58756;SDS011;44527;47.460;19.016;2022-09-09T15:11:45;1.48;;;0.60;;
58756;SDS011;44527;47.460;19.016;2022-09-09T15:14:48;1.10;;;0.32;;
58756;SDS011;44527;47.460;19.016;2022-09-09T15:17:50;2.83;;;0.50;;
58756;SDS011;44527;47.460;19.016;2022-09-09T15:20:52;4.97;;;0.60;;
58756;SDS011;44527;47.460;19.016;2022-09-09T15:23:55;4.05;;;0.95;;
58756;SDS011;44527;47.460;19.016;2022-09-09T15:26:58;4.97;;;0.88;;
58756;SDS011;44527;47.460;19.016;2022-09-09T15:30:02;1.10;;;0.50;;
58756;SDS011;44527;47.460;19.016;2022-09-09T15:33:07;0.82;;;0.55;;
58756;SDS011;44527;47.460;19.016;2022-09-09T15:36:15;4.35;;;0.55;;
58756;SDS011;44527;47.460;19.016;2022-09-09T15:39:18;3.75;;;0.60;;
58756;SDS011;44527;47.460;19.016;2022-09-09T15:42:21;1.10;;;0.50;;
58756;SDS011;44527;47.460;19.016;2022-09-09T15:45:23;1.87;;;0.50;;
58756;SDS011;44527;47.460;19.016;2022-09-09T15:48:32;2.35;;;0.50;;
58756;SDS011;44527;47.460;19.016;2022-09-09T15:51:34;1.00;;;0.57;;
58756;SDS011;44527;47.460;19.016;2022-09-09T15:54:44;1.37;;;0.62;;
58756;SDS011;44527;47.460;19.016;2022-09-09T15:57:47;1.73;;;0.60;;
58756;SDS011;44527;47.460;19.016;2022-09-09T16:00:49;2.10;;;0.85;;
58756;SDS011;44527;47.460;19.016;2022-09-09T16:03:52;1.30;;;0.60;;
58756;SDS011;44527;47.460;19.016;2022-09-09T16:06:56;1.48;;;0.77;;
58756;SDS011;44527;47.460;19.016;2022-09-09T16:10:03;1.30;;;0.62;;
58756;SDS011;44527;47.460;19.016;2022-09-09T16:13:05;2.62;;;0.52;;
58756;SDS011;44527;47.460;19.016;2022-09-09T16:16:08;2.10;;;0.80;;
58756;SDS011;44527;47.460;19.016;2022-09-09T16:19:13;1.35;;;0.60;;
58756;SDS011;44527;47.460;19.016;2022-09-09T16:22:16;0.95;;;0.55;;
58756;SDS011;44527;47.460;19.016;2022-09-09T16:25:19;3.95;;;0.70;;
58756;SDS011;44527;47.460;19.016;2022-09-09T16:28:23;2.80;;;0.73;;
58756;SDS011;44527;47.460;19.016;2022-09-09T16:31:26;3.15;;;0.82;;
58756;SDS011;44527;47.460;19.016;2022-09-09T16:34:29;2.12;;;0.75;;
58756;SDS011;44527;47.460;19.016;2022-09-09T16:37:32;1.70;;;0.90;;
58756;SDS011;44527;47.460;19.016;2022-09-09T16:40:36;4.25;;;0.70;;
58756;SDS011;44527;47.460;19.016;2022-09-09T16:43:39;3.15;;;0.80;;
58756;SDS011;44527;47.460;19.016;2022-09-09T16:46:43;2.45;;;0.98;;
58756;SDS011;44527;47.460;19.016;2022-09-09T16:49:46;2.22;;;0.80;;
58756;SDS011;44527;47.460;19.016;2022-09-09T16:52:48;7.32;;;1.15;;
58756;SDS011;44527;47.460;19.016;2022-09-09T16:55:50;3.45;;;0.88;;
58756;SDS011;44527;47.460;19.016;2022-09-09T16:58:53;2.92;;;0.93;;
58756;SDS011;44527;47.460;19.016;2022-09-09T17:01:57;2.20;;;0.90;;
58756;SDS011;44527;47.460;19.016;2022-09-09T17:04:59;1.23;;;0.75;;
58756;SDS011;44527;47.460;19.016;2022-09-09T17:08:01;4.65;;;0.95;;
58756;SDS011;44527;47.460;19.016;2022-09-09T17:11:10;4.68;;;0.82;;
58756;SDS011;44527;47.460;19.016;2022-09-09T17:14:21;4.75;;;0.88;;
58756;SDS011;44527;47.460;19.016;2022-09-09T17:17:24;3.05;;;0.70;;
58756;SDS011;44527;47.460;19.016;2022-09-09T17:20:35;1.80;;;0.77;;
58756;SDS011;44527;47.460;19.016;2022-09-09T17:23:48;3.15;;;0.85;;
58756;SDS011;44527;47.460;19.016;2022-09-09T17:26:51;2.30;;;1.05;;
58756;SDS011;44527;47.460;19.016;2022-09-09T17:29:54;3.22;;;0.90;;
58756;SDS011;44527;47.460;19.016;2022-09-09T17:32:56;3.47;;;0.88;;
58756;SDS011;44527;47.460;19.016;2022-09-09T17:36:18;4.10;;;1.20;;
58756;SDS011;44527;47.460;19.016;2022-09-09T17:39:23;3.62;;;1.02;;
58756;SDS011;44527;47.460;19.016;2022-09-09T17:42:26;3.60;;;0.95;;
58756;SDS011;44527;47.460;19.016;2022-09-09T17:45:28;6.47;;;1.10;;
58756;SDS011;44527;47.460;19.016;2022-09-09T17:48:32;7.87;;;1.10;;
58756;SDS011;44527;47.460;19.016;2022-09-09T17:51:34;7.20;;;1.10;;
58756;SDS011;44527;47.460;19.016;2022-09-09T17:54:38;6.25;;;0.88;;
58756;SDS011;44527;47.460;19.016;2022-09-09T17:57:40;4.28;;;1.25;;
58756;SDS011;44527;47.460;19.016;2022-09-09T18:00:42;2.70;;;1.10;;
58756;SDS011;44527;47.460;19.016;2022-09-09T18:03:45;9.30;;;0.93;;
58756;SDS011;44527;47.460;19.016;2022-09-09T18:06:49;3.72;;;1.12;;
58756;SDS011;44527;47.460;19.016;2022-09-09T18:09:53;7.50;;;1.17;;
58756;SDS011;44527;47.460;19.016;2022-09-09T18:12:55;2.83;;;1.12;;
58756;SDS011;44527;47.460;19.016;2022-09-09T18:15:59;4.30;;;1.05;;
58756;SDS011;44527;47.460;19.016;2022-09-09T18:19:04;2.83;;;1.20;;
58756;SDS011;44527;47.460;19.016;2022-09-09T18:22:07;2.92;;;1.15;;
58756;SDS011;44527;47.460;19.016;2022-09-09T18:25:09;3.87;;;1.12;;
58756;SDS011;44527;47.460;19.016;2022-09-09T18:28:12;5.75;;;1.10;;
58756;SDS011;44527;47.460;19.016;2022-09-09T18:31:15;1.90;;;0.90;;
58756;SDS011;44527;47.460;19.016;2022-09-09T18:34:19;8.80;;;1.20;;
58756;SDS011;44527;47.460;19.016;2022-09-09T18:37:23;2.95;;;0.93;;
58756;SDS011;44527;47.460;19.016;2022-09-09T18:40:29;5.40;;;1.15;;
58756;SDS011;44527;47.460;19.016;2022-09-09T18:43:32;6.65;;;1.00;;
58756;SDS011;44527;47.460;19.016;2022-09-09T18:46:35;13.23;;;1.27;;
58756;SDS011;44527;47.460;19.016;2022-09-09T18:49:38;3.90;;;1.20;;
58756;SDS011;44527;47.460;19.016;2022-09-09T18:52:40;9.55;;;1.42;;
58756;SDS011;44527;47.460;19.016;2022-09-09T18:55:42;8.70;;;1.27;;
58756;SDS011;44527;47.460;19.016;2022-09-09T18:58:45;9.15;;;1.52;;
58756;SDS011;44527;47.460;19.016;2022-09-09T19:01:49;3.35;;;1.33;;
58756;SDS011;44527;47.460;19.016;2022-09-09T19:04:53;4.55;;;1.40;;
58756;SDS011;44527;47.460;19.016;2022-09-09T19:07:55;5.35;;;1.45;;
58756;SDS011;44527;47.460;19.016;2022-09-09T19:11:00;5.72;;;1.62;;
58756;SDS011;44527;47.460;19.016;2022-09-09T19:14:04;8.70;;;1.65;;
58756;SDS011;44527;47.460;19.016;2022-09-09T19:17:09;3.22;;;1.42;;
58756;SDS011;44527;47.460;19.016;2022-09-09T19:20:11;10.05;;;2.28;;
58756;SDS011;44527;47.460;19.016;2022-09-09T19:23:13;6.45;;;2.03;;
58756;SDS011;44527;47.460;19.016;2022-09-09T19:26:16;6.20;;;2.00;;
58756;SDS011;44527;47.460;19.016;2022-09-09T19:29:19;6.93;;;1.80;;
58756;SDS011;44527;47.460;19.016;2022-09-09T19:32:23;12.00;;;1.85;;
58756;SDS011;44527;47.460;19.016;2022-09-09T19:35:55;5.97;;;1.65;;
58756;SDS011;44527;47.460;19.016;2022-09-09T19:38:58;9.05;;;1.83;;
58756;SDS011;44527;47.460;19.016;2022-09-09T19:42:01;3.12;;;1.52;;
58756;SDS011;44527;47.460;19.016;2022-09-09T19:45:03;9.38;;;1.90;;
58756;SDS011;44527;47.460;19.016;2022-09-09T19:48:07;8.63;;;1.92;;
58756;SDS011;44527;47.460;19.016;2022-09-09T19:51:11;5.70;;;1.50;;
58756;SDS011;44527;47.460;19.016;2022-09-09T19:54:15;9.35;;;1.67;;
58756;SDS011;44527;47.460;19.016;2022-09-09T19:57:17;10.82;;;2.08;;
58756;SDS011;44527;47.460;19.016;2022-09-09T20:00:21;8.77;;;1.70;;
58756;SDS011;44527;47.460;19.016;2022-09-09T20:03:23;7.22;;;2.33;;
58756;SDS011;44527;47.460;19.016;2022-09-09T20:06:27;6.12;;;2.00;;
58756;SDS011;44527;47.460;19.016;2022-09-09T20:09:31;6.95;;;3.10;;
58756;SDS011;44527;47.460;19.016;2022-09-09T20:12:33;3.97;;;2.08;;
58756;SDS011;44527;47.460;19.016;2022-09-09T20:15:36;6.80;;;2.03;;
58756;SDS011;44527;47.460;19.016;2022-09-09T20:18:48;6.53;;;1.98;;
58756;SDS011;44527;47.460;19.016;2022-09-09T20:21:53;6.78;;;1.90;;
58756;SDS011;44527;47.460;19.016;2022-09-09T20:24:56;7.70;;;2.62;;
58756;SDS011;44527;47.460;19.016;2022-09-09T20:27:58;4.80;;;2.37;;
58756;SDS011;44527;47.460;19.016;2022-09-09T20:34:12;10.38;;;3.28;;
58756;SDS011;44527;47.460;19.016;2022-09-09T20:37:16;6.68;;;3.45;;
58756;SDS011;44527;47.460;19.016;2022-09-09T20:40:18;11.35;;;3.72;;